Terminal Aerodrome Forecast
Issued by NWS

Home | Current Version | Previous Version | Text Only | Print | Product List | Glossary On
Versions: 1 2 3 4 5 6 7 8 9 10 11 12 13 14
000
FTUS45 KVEF 010716 AAA
TAFVGT
TAF AMD
KVGT 010716Z 0107/0206 03008KT P6SM SKC
     FM010900 35006KT P6SM SKC
     FM011600 05008KT P6SM SKC
     FM012100 15006KT P6SM FEW150=

USA.gov is the U.S. government's official web portal to all federal, state and local government web resources and services.